createdAt,value
2018-08-30T17:50:10.132Z,11.50
2018-08-30T17:54:53.602Z,9.90
2018-08-30T17:59:40.574Z,17.73
2018-08-30T18:04:24.099Z,15.73
2018-08-30T18:09:10.406Z,17.23
2018-08-30T18:13:54.775Z,13.43
2018-08-30T18:18:41.743Z,11.67
2018-08-30T18:23:25.301Z,13.63
2018-08-30T18:28:09.877Z,9.77
2018-08-30T18:32:53.274Z,16.97
2018-08-30T18:37:36.960Z,8.40
2018-08-30T18:42:20.525Z,11.90
2018-08-30T18:47:04.812Z,10.43
2018-08-30T18:51:49.020Z,7.77
2018-08-30T18:56:32.787Z,10.87
2018-08-30T19:01:16.463Z,12.03
2018-08-30T19:06:03.953Z,7.73
2018-08-30T19:10:47.327Z,10.80
2018-08-30T19:15:35.986Z,11.23
2018-08-30T19:20:20.513Z,10.60
2018-08-30T19:25:09.126Z,15.27
2018-08-30T19:30:04.378Z,12.53
2018-08-30T19:34:48.652Z,10.37
2018-08-30T19:39:35.218Z,11.23
2018-08-30T19:44:18.625Z,7.90
2018-08-30T19:49:02.160Z,15.90
2018-08-30T19:53:45.791Z,10.97
2018-08-30T19:58:30.444Z,10.47
2018-08-30T20:03:13.717Z,7.67
2018-08-30T20:07:58.215Z,12.60
2018-08-30T20:12:41.410Z,14.07
2018-08-30T20:17:25.029Z,8.57
2018-08-30T20:22:10.975Z,13.40
2018-08-30T20:26:54.449Z,7.47
2018-08-30T20:31:37.908Z,8.90
2018-08-30T20:36:21.330Z,6.90
2018-08-30T20:41:05.236Z,8.87
2018-08-30T20:45:48.696Z,8.70
2018-08-30T20:50:32.173Z,11.70
2018-08-30T20:55:15.655Z,8.43
2018-08-30T20:59:59.264Z,10.10
2018-08-30T21:04:50.190Z,9.60
2018-08-30T21:09:38.437Z,8.93
2018-08-30T21:14:22.146Z,8.30
2018-08-30T21:19:08.724Z,14.73
2018-08-30T21:23:52.248Z,9.43
2018-08-30T21:28:35.763Z,8.13
2018-08-30T21:33:21.434Z,10.40
2018-08-30T21:38:06.083Z,8.50
2018-08-30T21:42:49.439Z,6.93
2018-08-30T21:47:33.077Z,8.73
2018-08-30T21:52:16.461Z,10.47
2018-08-30T21:57:01.134Z,10.07
2018-08-30T22:01:44.532Z,7.67
2018-08-30T22:06:28.085Z,13.40
2018-08-30T22:11:11.476Z,10.17
2018-08-30T22:15:55.819Z,11.23
2018-08-30T22:20:39.250Z,9.57
2018-08-30T22:25:26.127Z,9.83
2018-08-30T22:30:10.956Z,11.20
2018-08-30T22:34:54.341Z,11.50
2018-08-30T22:39:37.812Z,11.43
2018-08-30T22:44:21.050Z,12.80
2018-08-30T22:49:04.743Z,11.30
2018-08-30T22:53:47.979Z,11.07
2018-08-30T22:58:32.425Z,9.13
2018-08-30T23:03:15.819Z,12.33
2018-08-30T23:08:00.534Z,11.63
2018-08-30T23:12:43.914Z,10.63
2018-08-30T23:17:30.858Z,12.50
2018-08-30T23:22:14.192Z,12.77
2018-08-30T23:26:58.701Z,10.60
2018-08-30T23:31:42.067Z,13.30
2018-08-30T23:36:26.459Z,19.17
2018-08-30T23:41:09.974Z,25.10
2018-08-30T23:45:54.285Z,24.13
2018-08-30T23:50:37.593Z,25.67
2018-08-30T23:55:24.396Z,20.33
